createdAt,value
2019-02-15T00:00:47.924Z,100.00
2019-02-15T00:03:53.188Z,100.00
2019-02-15T00:06:58.394Z,100.00
2019-02-15T00:10:03.600Z,100.00
2019-02-15T00:13:13.549Z,100.00
2019-02-15T00:16:15.948Z,100.00
2019-02-15T00:19:33.129Z,100.00
2019-02-15T00:22:38.451Z,100.00
2019-02-15T00:25:43.604Z,100.00
2019-02-15T00:28:49.038Z,100.00
2019-02-15T00:31:54.212Z,100.00
2019-02-15T00:34:59.391Z,100.00
2019-02-15T00:38:04.611Z,100.00
2019-02-15T00:41:09.759Z,100.00
2019-02-15T00:44:14.940Z,100.00
2019-02-15T00:47:40.047Z,100.00
2019-02-15T00:51:00.818Z,100.00
2019-02-15T00:54:12.829Z,100.00
2019-02-15T00:57:39.780Z,100.00
2019-02-15T01:00:59.873Z,100.00
2019-02-15T01:04:20.612Z,100.00
2019-02-15T01:07:44.750Z,100.00
2019-02-15T01:10:58.907Z,100.00
2019-02-15T01:14:04.219Z,100.00
2019-02-15T01:17:10.081Z,100.00
2019-02-15T01:20:15.251Z,100.00
2019-02-15T01:23:20.404Z,100.00
2019-02-15T01:26:40.375Z,100.00
2019-02-15T01:29:57.482Z,100.00
2019-02-15T01:33:12.454Z,100.00
2019-02-15T01:36:42.711Z,100.00
2019-02-15T01:40:12.864Z,100.00
2019-02-15T01:43:40.127Z,100.00
2019-02-15T01:47:04.822Z,100.00
2019-02-15T01:50:09.930Z,100.00
2019-02-15T01:53:15.091Z,100.00
2019-02-15T01:56:20.251Z,100.00
2019-02-15T01:59:25.432Z,100.00
2019-02-15T02:02:30.619Z,100.00
2019-02-15T02:05:35.767Z,100.00
2019-02-15T02:08:40.943Z,100.00
2019-02-15T02:11:46.134Z,100.00
2019-02-15T02:14:51.340Z,100.00
2019-02-15T02:17:56.490Z,100.00
2019-02-15T02:21:01.659Z,100.00
2019-02-15T02:24:06.886Z,100.00
2019-02-15T02:27:12.120Z,100.00
2019-02-15T02:30:17.360Z,100.00
2019-02-15T02:33:22.581Z,100.00
2019-02-15T02:36:49.594Z,100.00
2019-02-15T02:39:54.731Z,100.00
2019-02-15T02:42:59.937Z,100.00
2019-02-15T02:46:05.153Z,100.00
2019-02-15T02:49:10.362Z,100.00
2019-02-15T02:52:15.563Z,100.00
2019-02-15T02:55:20.795Z,100.00
2019-02-15T02:58:25.934Z,100.00
2019-02-15T03:01:31.118Z,100.00
2019-02-15T03:04:36.365Z,100.00
2019-02-15T03:07:42.611Z,100.00
2019-02-15T03:10:47.743Z,100.00
2019-02-15T03:13:52.955Z,100.00
2019-02-15T03:16:58.117Z,100.00
2019-02-15T03:20:03.463Z,100.00
2019-02-15T03:23:08.615Z,100.00
2019-02-15T03:26:13.818Z,100.00
2019-02-15T03:29:19.016Z,100.00
2019-02-15T03:32:24.145Z,100.00
2019-02-15T03:35:29.344Z,100.00
2019-02-15T03:38:42.556Z,100.00
2019-02-15T03:41:47.813Z,100.00
2019-02-15T03:44:53.026Z,100.00
2019-02-15T03:47:58.161Z,100.00
2019-02-15T03:51:03.413Z,100.00
2019-02-15T03:54:08.592Z,100.00
2019-02-15T03:57:13.741Z,100.00
2019-02-15T04:00:18.886Z,100.00
2019-02-15T04:03:24.020Z,100.00
2019-02-15T04:06:30.312Z,100.00
2019-02-15T04:09:35.442Z,100.00
2019-02-15T04:12:40.859Z,100.00
2019-02-15T04:15:45.968Z,100.00
2019-02-15T04:18:51.222Z,100.00
2019-02-15T04:21:56.369Z,100.00
2019-02-15T04:25:01.484Z,100.00
2019-02-15T04:28:06.639Z,100.00
2019-02-15T04:31:11.794Z,100.00
2019-02-15T04:34:16.950Z,100.00
2019-02-15T04:37:22.091Z,100.00
2019-02-15T04:40:27.288Z,100.00
2019-02-15T04:43:32.454Z,100.00
2019-02-15T04:46:37.701Z,100.00
2019-02-15T04:49:42.891Z,100.00
2019-02-15T04:52:48.003Z,100.00
2019-02-15T04:55:53.193Z,100.00
2019-02-15T04:58:58.341Z,100.00
2019-02-15T05:02:03.466Z,100.00
2019-02-15T05:05:08.773Z,100.00
2019-02-15T05:08:14.065Z,100.00
2019-02-15T05:11:20.327Z,100.00
2019-02-15T05:14:25.496Z,100.00
2019-02-15T05:17:30.632Z,100.00
2019-02-15T05:20:35.816Z,100.00
2019-02-15T05:23:40.963Z,100.00
2019-02-15T05:26:46.131Z,100.00
2019-02-15T05:29:51.329Z,100.00
2019-02-15T05:32:56.469Z,100.00
2019-02-15T05:36:01.624Z,100.00
2019-02-15T05:39:08.973Z,100.00
2019-02-15T05:42:14.108Z,100.00
2019-02-15T05:45:19.250Z,100.00
2019-02-15T05:48:24.396Z,100.00
2019-02-15T05:51:29.560Z,100.00
2019-02-15T05:54:34.653Z,100.00
2019-02-15T05:57:39.851Z,100.00
2019-02-15T06:00:45.090Z,100.00
2019-02-15T06:03:50.342Z,100.00
2019-02-15T06:06:57.203Z,100.00
2019-02-15T06:10:02.363Z,100.00
2019-02-15T06:13:07.497Z,100.00
2019-02-15T06:16:12.747Z,100.00
2019-02-15T06:19:17.872Z,100.00
2019-02-15T06:22:23.119Z,100.00
2019-02-15T06:25:28.283Z,100.00
2019-02-15T06:28:34.546Z,100.00
2019-02-15T06:31:40.614Z,100.00
2019-02-15T06:34:45.766Z,100.00
2019-02-15T06:37:50.879Z,100.00
2019-02-15T06:40:56.058Z,100.00
2019-02-15T06:44:01.174Z,100.00
2019-02-15T06:47:06.376Z,100.00
2019-02-15T06:50:11.552Z,100.00
2019-02-15T06:53:16.747Z,100.00
2019-02-15T06:56:21.944Z,100.00
2019-02-15T06:59:55.162Z,100.00
2019-02-15T07:03:10.777Z,100.00
2019-02-15T07:06:15.881Z,100.00
2019-02-15T07:09:21.016Z,100.00
2019-02-15T07:12:26.121Z,100.00
2019-02-15T07:15:33.857Z,100.00
2019-02-15T07:18:38.204Z,100.00
2019-02-15T07:21:43.353Z,100.00
2019-02-15T07:24:48.499Z,100.00
2019-02-15T07:27:53.615Z,100.00
2019-02-15T07:30:58.804Z,100.00
2019-02-15T07:34:03.980Z,100.00
2019-02-15T07:37:09.160Z,100.00
2019-02-15T07:40:15.001Z,100.00
2019-02-15T07:43:20.210Z,100.00
2019-02-15T07:46:25.540Z,99.42
2019-02-15T07:49:30.714Z,98.61
2019-02-15T07:52:35.916Z,97.37
2019-02-15T07:55:41.120Z,96.18
2019-02-15T07:58:46.294Z,95.68
2019-02-15T08:01:51.505Z,95.34
2019-02-15T08:04:56.698Z,94.45
2019-02-15T08:08:01.909Z,93.96
2019-02-15T08:11:07.071Z,94.41
2019-02-15T08:14:14.845Z,94.04
2019-02-15T08:17:19.108Z,93.29
2019-02-15T08:20:24.208Z,92.82
2019-02-15T08:23:29.436Z,92.27
2019-02-15T08:26:34.562Z,92.23
2019-02-15T08:29:39.735Z,91.26
2019-02-15T08:32:44.835Z,90.82
2019-02-15T08:35:50.151Z,90.35
2019-02-15T08:38:55.262Z,89.15
2019-02-15T08:42:03.876Z,88.53
2019-02-15T08:45:08.922Z,88.13
2019-02-15T08:48:14.144Z,88.05
2019-02-15T08:51:19.295Z,87.76
2019-02-15T08:54:24.394Z,86.42
2019-02-15T08:57:29.560Z,86.72
2019-02-15T09:00:34.700Z,84.77
2019-02-15T09:03:39.817Z,84.63
2019-02-15T09:06:44.887Z,84.96
2019-02-15T09:09:50.181Z,82.87
2019-02-15T09:12:55.262Z,83.93
2019-02-15T09:16:09.681Z,82.83
2019-02-15T09:19:07.326Z,81.68
2019-02-15T09:22:12.509Z,80.78
2019-02-15T09:25:17.621Z,80.92
2019-02-15T09:28:30.480Z,80.16
2019-02-15T09:31:35.615Z,79.00
2019-02-15T09:34:40.795Z,78.41
2019-02-15T09:37:45.931Z,77.48
2019-02-15T09:40:51.159Z,77.50
2019-02-15T09:43:56.365Z,77.16
2019-02-15T09:47:01.532Z,77.01
2019-02-15T09:50:08.041Z,76.67
2019-02-15T09:53:14.059Z,75.05
2019-02-15T09:56:19.232Z,75.06
2019-02-15T09:59:24.420Z,74.67
2019-02-15T10:02:29.598Z,73.36
2019-02-15T10:05:34.676Z,72.36
2019-02-15T10:08:39.825Z,71.54
2019-02-15T10:11:44.947Z,69.20
2019-02-15T10:14:50.138Z,68.74
2019-02-15T10:17:58.147Z,68.70
2019-02-15T10:21:03.270Z,68.56
2019-02-15T10:24:09.515Z,67.73
2019-02-15T10:27:14.619Z,66.99
2019-02-15T10:30:19.785Z,66.65
2019-02-15T10:33:24.879Z,67.30
2019-02-15T10:36:30.058Z,66.46
2019-02-15T10:39:35.166Z,64.77
2019-02-15T10:42:40.383Z,64.49
2019-02-15T10:45:45.512Z,64.04
2019-02-15T10:48:50.715Z,63.99
2019-02-15T10:51:55.895Z,64.46
2019-02-15T10:55:01.000Z,62.73
2019-02-15T10:58:07.247Z,62.69
2019-02-15T11:01:12.514Z,61.27
2019-02-15T11:04:17.745Z,62.40
2019-02-15T11:07:22.974Z,62.12
2019-02-15T11:10:28.104Z,60.27
2019-02-15T11:13:33.690Z,60.29
2019-02-15T11:16:46.937Z,60.07
2019-02-15T11:19:45.684Z,60.13
2019-02-15T11:22:50.836Z,59.90
2019-02-15T11:25:55.995Z,59.37
2019-02-15T11:29:01.160Z,58.62
2019-02-15T11:32:06.431Z,58.12
2019-02-15T11:35:12.840Z,58.83
2019-02-15T11:38:17.971Z,58.10
2019-02-15T11:41:23.111Z,57.36
2019-02-15T11:44:28.391Z,56.17
2019-02-15T11:47:33.537Z,55.01
2019-02-15T11:50:38.676Z,56.27
2019-02-15T11:53:43.923Z,57.02
2019-02-15T11:56:49.069Z,56.92
2019-02-15T11:59:54.347Z,55.86
2019-02-15T12:02:59.521Z,57.25
2019-02-15T12:06:04.692Z,56.11
2019-02-15T12:09:09.827Z,56.62
2019-02-15T12:12:15.434Z,57.56
2019-02-15T12:15:20.684Z,55.62
2019-02-15T12:18:25.895Z,56.00
2019-02-15T12:21:30.973Z,55.33
2019-02-15T12:24:36.133Z,54.41
2019-02-15T12:27:41.259Z,53.65
2019-02-15T12:30:46.398Z,54.33
2019-02-15T12:33:51.593Z,53.84
2019-02-15T12:36:56.796Z,53.78
2019-02-15T12:40:01.951Z,53.95
2019-02-15T12:43:08.242Z,52.70
2019-02-15T12:46:13.448Z,52.51
2019-02-15T12:49:18.617Z,52.41
2019-02-15T12:52:23.783Z,52.64
2019-02-15T12:55:28.971Z,53.01
2019-02-15T12:58:34.212Z,52.23
2019-02-15T13:01:39.343Z,51.63
2019-02-15T13:04:44.484Z,51.84
2019-02-15T13:07:49.621Z,52.20
2019-02-15T13:10:54.900Z,51.87
2019-02-15T13:14:00.062Z,50.51
2019-02-15T13:17:05.167Z,51.69
2019-02-15T13:20:10.705Z,50.80
2019-02-15T13:23:15.939Z,51.29
2019-02-15T13:26:21.226Z,51.35
2019-02-15T13:29:26.372Z,51.09
2019-02-15T13:32:31.590Z,51.16
2019-02-15T13:35:36.719Z,50.89
2019-02-15T13:38:41.866Z,50.41
2019-02-15T13:41:47.035Z,50.16
2019-02-15T13:44:52.203Z,50.09
2019-02-15T13:47:57.432Z,50.71
2019-02-15T13:51:02.619Z,50.08
2019-02-15T13:54:07.729Z,50.03
2019-02-15T13:57:12.965Z,50.06
2019-02-15T14:00:18.145Z,50.01
2019-02-15T14:03:23.280Z,50.09
2019-02-15T14:06:28.427Z,50.13
2019-02-15T14:09:33.571Z,49.53
2019-02-15T14:12:38.772Z,50.16
2019-02-15T14:15:43.925Z,50.09
2019-02-15T14:18:49.053Z,49.63
2019-02-15T14:21:54.217Z,49.68
2019-02-15T14:24:59.532Z,50.28
2019-02-15T14:28:04.676Z,50.38
2019-02-15T14:31:09.822Z,49.41
2019-02-15T14:34:15.008Z,50.22
2019-02-15T14:37:20.251Z,51.07
2019-02-15T14:40:25.397Z,51.41
2019-02-15T14:43:30.540Z,51.07
2019-02-15T14:46:35.718Z,51.61
2019-02-15T14:49:40.829Z,52.36
2019-02-15T14:52:46.036Z,53.61
2019-02-15T14:55:51.196Z,53.04
2019-02-15T14:58:56.374Z,52.64
2019-02-15T15:02:01.606Z,53.55
2019-02-15T15:05:07.275Z,54.55
2019-02-15T15:08:12.433Z,54.92
2019-02-15T15:11:17.680Z,55.80
2019-02-15T15:14:22.939Z,56.64
2019-02-15T15:17:28.100Z,56.41
2019-02-15T15:20:33.276Z,56.75
2019-02-15T15:23:38.506Z,58.23
2019-02-15T15:26:43.615Z,58.60
2019-02-15T15:29:50.445Z,59.98
2019-02-15T15:32:55.711Z,60.14
2019-02-15T15:36:00.773Z,60.46
2019-02-15T15:39:06.553Z,61.03
2019-02-15T15:42:12.611Z,61.23
2019-02-15T15:45:17.889Z,61.92
2019-02-15T15:48:23.137Z,61.40
2019-02-15T15:51:28.316Z,62.65
2019-02-15T15:54:33.565Z,63.48
2019-02-15T15:57:38.707Z,64.19
2019-02-15T16:00:43.911Z,64.49
2019-02-15T16:03:49.216Z,65.29
2019-02-15T16:06:54.373Z,66.68
2019-02-15T16:09:59.514Z,68.51
2019-02-15T16:13:04.705Z,70.13
2019-02-15T16:16:09.941Z,71.00
2019-02-15T16:19:15.124Z,71.12
2019-02-15T16:22:20.475Z,71.99
2019-02-15T16:25:25.672Z,73.01
2019-02-15T16:28:31.534Z,74.30
2019-02-15T16:31:36.645Z,74.62
2019-02-15T16:34:41.790Z,74.71
2019-02-15T16:37:46.982Z,75.03
2019-02-15T16:40:52.261Z,76.24
2019-02-15T16:43:57.439Z,76.87
2019-02-15T16:47:02.590Z,77.81
2019-02-15T16:50:08.994Z,78.80
2019-02-15T16:53:14.207Z,79.51
2019-02-15T16:56:19.407Z,80.57
2019-02-15T16:59:24.534Z,80.40
2019-02-15T17:02:29.712Z,80.50
2019-02-15T17:05:34.923Z,81.02
2019-02-15T17:08:42.400Z,81.51
2019-02-15T17:11:47.520Z,82.39
2019-02-15T17:14:52.714Z,83.06
2019-02-15T17:17:57.858Z,83.00
2019-02-15T17:21:03.019Z,83.43
2019-02-15T17:24:08.225Z,83.78
2019-02-15T17:27:17.060Z,84.76
2019-02-15T17:30:22.265Z,85.72
2019-02-15T17:33:27.422Z,86.22
2019-02-15T17:36:32.615Z,86.58
2019-02-15T17:39:37.817Z,86.60
2019-02-15T17:42:43.001Z,87.01
2019-02-15T17:45:49.232Z,87.64
2019-02-15T17:49:00.600Z,87.66
2019-02-15T17:52:01.218Z,88.08
2019-02-15T17:55:06.484Z,89.04
2019-02-15T17:58:11.821Z,89.20
2019-02-15T18:01:16.969Z,89.33
2019-02-15T18:04:22.154Z,89.77
2019-02-15T18:07:27.267Z,90.53
2019-02-15T18:10:32.433Z,90.96
2019-02-15T18:13:37.550Z,91.06
2019-02-15T18:16:42.651Z,91.77
2019-02-15T18:19:47.785Z,91.76
2019-02-15T18:22:52.978Z,92.08
2019-02-15T18:25:58.157Z,92.26
2019-02-15T18:29:03.383Z,92.33
2019-02-15T18:32:08.520Z,92.30
2019-02-15T18:35:13.861Z,92.37
2019-02-15T18:38:19.009Z,93.21
2019-02-15T18:41:24.169Z,93.60
2019-02-15T18:44:29.364Z,93.73
2019-02-15T18:47:34.518Z,94.18
2019-02-15T18:50:39.855Z,94.28
2019-02-15T18:53:45.630Z,94.43
2019-02-15T18:56:51.136Z,93.96
2019-02-15T18:59:56.388Z,94.00
2019-02-15T19:03:01.535Z,93.96
2019-02-15T19:06:07.709Z,93.72
2019-02-15T19:09:12.843Z,94.11
2019-02-15T19:12:18.174Z,94.82
2019-02-15T19:15:25.775Z,95.38
2019-02-15T19:18:31.011Z,95.80
2019-02-15T19:21:37.388Z,95.71
2019-02-15T19:24:42.582Z,95.84
2019-02-15T19:27:47.847Z,95.51
2019-02-15T19:30:53.173Z,95.00
2019-02-15T19:33:58.419Z,95.55
2019-02-15T19:37:05.044Z,96.01
2019-02-15T19:40:11.500Z,96.36
2019-02-15T19:43:16.729Z,96.66
2019-02-15T19:46:21.905Z,96.94
2019-02-15T19:49:27.046Z,96.90
2019-02-15T19:52:32.239Z,96.60
2019-02-15T19:55:37.438Z,96.66
2019-02-15T19:58:43.839Z,97.30
2019-02-15T20:01:49.243Z,96.91
2019-02-15T20:04:54.450Z,96.75
2019-02-15T20:07:59.641Z,97.22
2019-02-15T20:11:04.886Z,97.60
2019-02-15T20:14:10.106Z,98.02
2019-02-15T20:17:15.333Z,98.31
2019-02-15T20:20:20.581Z,98.57
2019-02-15T20:23:26.044Z,98.77
2019-02-15T20:26:31.264Z,98.73
2019-02-15T20:29:36.490Z,98.80
2019-02-15T20:32:41.721Z,98.94
2019-02-15T20:35:47.073Z,99.21
2019-02-15T20:38:52.275Z,99.09
2019-02-15T20:41:57.464Z,98.96
2019-02-15T20:45:02.656Z,98.93
2019-02-15T20:48:12.183Z,99.13
2019-02-15T20:51:14.742Z,99.42
2019-02-15T20:54:20.882Z,99.41
2019-02-15T20:57:26.090Z,99.68
2019-02-15T21:00:31.306Z,99.77
2019-02-15T21:03:36.557Z,99.93
2019-02-15T21:06:41.734Z,100.00
2019-02-15T21:09:46.931Z,100.00
2019-02-15T21:12:52.318Z,100.00
2019-02-15T21:15:57.576Z,100.00
2019-02-15T21:19:02.740Z,100.00
2019-02-15T21:22:07.897Z,100.00
2019-02-15T21:25:13.146Z,100.00
2019-02-15T21:28:18.356Z,100.00
2019-02-15T21:31:23.540Z,100.00
2019-02-15T21:34:28.748Z,100.00
2019-02-15T21:37:33.922Z,100.00
2019-02-15T21:40:39.186Z,100.00
2019-02-15T21:43:44.315Z,100.00
2019-02-15T21:46:49.497Z,100.00
2019-02-15T21:49:54.752Z,100.00
2019-02-15T21:52:59.957Z,100.00
2019-02-15T21:56:05.152Z,100.00
2019-02-15T21:59:10.359Z,100.00
2019-02-15T22:02:15.575Z,100.00
2019-02-15T22:05:20.788Z,100.00
2019-02-15T22:08:25.931Z,100.00
2019-02-15T22:11:31.182Z,100.00
2019-02-15T22:14:36.305Z,100.00
2019-02-15T22:17:41.460Z,100.00
2019-02-15T22:20:46.686Z,100.00
2019-02-15T22:23:55.179Z,100.00
2019-02-15T22:27:02.058Z,100.00
2019-02-15T22:30:09.267Z,100.00
2019-02-15T22:33:14.468Z,100.00
2019-02-15T22:36:19.699Z,100.00
2019-02-15T22:39:24.845Z,100.00
2019-02-15T22:42:30.008Z,100.00
2019-02-15T22:45:35.293Z,100.00
2019-02-15T22:48:40.441Z,100.00
2019-02-15T22:51:45.619Z,100.00
2019-02-15T22:54:50.784Z,100.00
2019-02-15T22:57:55.924Z,100.00
2019-02-15T23:01:05.439Z,100.00
2019-02-15T23:04:10.716Z,100.00
2019-02-15T23:07:16.000Z,100.00
2019-02-15T23:10:21.177Z,100.00
2019-02-15T23:13:26.320Z,100.00
2019-02-15T23:16:31.493Z,100.00
2019-02-15T23:19:36.650Z,100.00
2019-02-15T23:22:41.822Z,100.00
2019-02-15T23:25:47.055Z,100.00
2019-02-15T23:28:52.205Z,100.00
2019-02-15T23:31:57.398Z,100.00
2019-02-15T23:35:03.657Z,100.00
2019-02-15T23:38:08.898Z,100.00
2019-02-15T23:41:14.069Z,100.00
2019-02-15T23:44:19.339Z,100.00
2019-02-15T23:47:24.755Z,100.00
2019-02-15T23:50:30.047Z,100.00
2019-02-15T23:53:35.196Z,100.00
2019-02-15T23:56:40.338Z,100.00
2019-02-15T23:59:45.521Z,100.00
